Flight Track Log - Related Links

Times and Time Zones

All times are in EDT time to prevent confusion due to time zone crossing. See the UJC7 flight status page for this flight to view local times or setup timezone preferences in your user account.

Time Position Orientation Groundspeed Altitude Reporting Facility
EDT Latitude Longitude Course Direction KTS MPH feet Rate Location/Type
Tue 10:04:15 AM 43.5137 -84.0682 170° South  Level FlightAware Approximate
Tue 10:05:15 AM 43.4278 -84.1148 83° East  Level FlightAware Approximate
Tue 10:06:24 AM 43.4336 -84.0483 200° South 277 319 7,400  Level Cleveland Center
Tue 10:07:24 AM 43.3639 -84.0842 201° Southwest 282 325 10,200 2,700 Climbing Cleveland Center
Tue 10:08:24 AM 43.2853 -84.1256 201° Southwest 282 325 12,800 2,400 Climbing Cleveland Center
Tue 10:09:24 AM 43.2133 -84.1642 202° Southwest 276 318 15,000 2,100 Climbing Cleveland Center
Tue 10:10:24 AM 43.1347 -84.2081 200° South 290 334 17,000 1,850 Climbing Cleveland Center
Tue 10:11:24 AM 43.0544 -84.2486 201° Southwest 304 350 18,700 1,700 Climbing Cleveland Center
Tue 10:12:24 AM 42.9758 -84.2894 202° Southwest 310 357 20,400 1,650 Climbing Cleveland Center
Tue 10:13:24 AM 42.8953 -84.3328 201° Southwest 316 364 22,000 1,500 Climbing Cleveland Center
Tue 10:14:24 AM 42.8211 -84.3708 201° Southwest 316 364 23,400 1,450 Climbing Cleveland Center
Tue 10:15:24 AM 42.7403 -84.4142 201° Southwest 315 362 24,900 1,550 Climbing Cleveland Center
Tue 10:16:24 AM 42.6469 -84.4619 202° Southwest 315 362 26,500 1,450 Climbing Cleveland Center
Tue 10:17:24 AM 42.5622 -84.5075 201° Southwest 320 368 27,800 1,250 Climbing Cleveland Center
Tue 10:18:24 AM 42.4836 -84.5478 200° South 314 361 29,000 1,100 Climbing Cleveland Center
Tue 10:19:24 AM 42.4008 -84.5875 202° Southwest 314 361 30,000 375 Climbing Cleveland Center
Tue 10:21:04 AM 42.2694 -84.6603 200° South 300 345 30,000  Level Chicago Center
Tue 10:22:04 AM 42.1775 -84.7064 200° South 334 384 30,000  Level Chicago Center
Tue 10:23:04 AM 42.0792 -84.7556 202° Southwest 361 415 30,000  Level Chicago Center
Tue 10:24:04 AM 41.9772 -84.8103 201° Southwest 371 427 30,000  Level Chicago Center
Tue 10:25:04 AM 41.8792 -84.8619 201° Southwest 371 427 30,000  Level Chicago Center
Tue 10:26:04 AM 41.7831 -84.9106 201° Southwest 377 434 30,000  Level Chicago Center
Tue 10:27:04 AM 41.6847 -84.9619 201° Southwest 382 440 30,000  Level Chicago Center
Tue 10:28:04 AM 41.5847 -85.0131 202° Southwest 382 440 30,000  Level Chicago Center
Tue 10:29:04 AM 41.5008 -85.0575 200° South 382 440 30,000  Level Chicago Center
Tue 10:30:04 AM 41.4086 -85.1025 204° Southwest 376 433 30,000 -50 Level Chicago Center
Tue 10:31:04 AM 41.3106 -85.1614 198° South 371 427 29,900  Descending Chicago Center
Tue 10:32:04 AM 41.2203 -85.2003 201° Southwest 365 420 30,000 50 Climbing Chicago Center
Tue 10:33:04 AM 41.1181 -85.2536 201° Southwest 365 420 30,000  Level Chicago Center
Tue 10:34:04 AM 41.0258 -85.3008 199° South 365 420 30,000  Level Chicago Center
Tue 10:35:04 AM 40.9294 -85.3453 201° Southwest 365 420 30,000  Level Chicago Center
Tue 10:36:04 AM 40.8350 -85.3922 200° South 365 420 30,000  Level Chicago Center
Tue 10:38:23 AM 40.6228 -85.4958 201° Southwest 373 429 30,000  Level Indianapolis Center
Tue 10:39:23 AM 40.5261 -85.5450 202° Southwest 373 429 30,000  Level Indianapolis Center
Tue 10:40:23 AM 40.4317 -85.5939 199° South 373 429 30,000  Level Indianapolis Center
Tue 10:41:23 AM 40.3264 -85.6425 200° South 373 429 30,000  Level Indianapolis Center
Tue 10:42:23 AM 40.2319 -85.6886 200° South 373 429 30,000  Level Indianapolis Center
Tue 10:43:23 AM 40.1353 -85.7347 201° Southwest 373 429 30,000  Level Indianapolis Center
Tue 10:44:23 AM 40.0425 -85.7806 201° Southwest 373 429 30,000  Level Indianapolis Center
Tue 10:45:23 AM 39.9458 -85.8289 199° South 373 429 30,000  Level Indianapolis Center
Tue 10:46:23 AM 39.8511 -85.8719 200° South 373 429 30,000  Level Indianapolis Center
Tue 10:47:23 AM 39.7564 -85.9175 200° South 373 429 30,000  Level Indianapolis Center
Tue 10:48:23 AM 39.6703 -85.9578 201° Southwest 373 429 30,000  Level Indianapolis Center
Tue 10:49:23 AM 39.5753 -86.0056 202° Southwest 373 429 30,000  Level Indianapolis Center
Tue 10:50:23 AM 39.4825 -86.0536 200° South 373 429 30,000  Level Indianapolis Center
Tue 10:51:23 AM 39.3858 -86.0983 202° Southwest 373 429 30,000  Level Indianapolis Center
Tue 10:52:23 AM 39.2825 -86.1511 200° South 373 429 30,000  Level Indianapolis Center
Tue 10:53:23 AM 39.1875 -86.1958 202° Southwest 373 429 30,000  Level Indianapolis Center
Tue 10:54:23 AM 39.0947 -86.2433 200° South 373 429 30,000  Level Indianapolis Center
Tue 10:55:23 AM 39.0042 -86.2853 203° Southwest 358 412 30,000  Level Indianapolis Center
Tue 10:56:23 AM 38.9153 -86.3328 200° South 352 405 30,000  Level Indianapolis Center
Tue 10:57:23 AM 38.8267 -86.3747 202° Southwest 352 405 30,000  Level Indianapolis Center
Tue 10:58:23 AM 38.7297 -86.4242 200° South 357 411 30,000  Level Indianapolis Center
Tue 10:59:23 AM 38.6347 -86.4683 201° Southwest 363 418 30,000  Level Indianapolis Center
Tue 11:00:23 AM 38.5397 -86.5147 200° South 363 418 30,000  Level Indianapolis Center
Tue 11:01:23 AM 38.4447 -86.5586 200° South 368 423 30,000  Level Indianapolis Center
Tue 11:02:23 AM 38.3497 -86.6025 201° Southwest 368 423 30,000  Level Indianapolis Center
Tue 11:03:23 AM 38.2547 -86.6489 201° Southwest 368 423 30,000  Level Indianapolis Center
Tue 11:04:23 AM 38.1594 -86.6950 200° South 373 429 30,000  Level Indianapolis Center
Tue 11:05:23 AM 38.0625 -86.7408 201° Southwest 373 429 30,000  Level Indianapolis Center
Tue 11:06:23 AM 37.9758 -86.7819 201° Southwest 373 429 30,000 -600 Level Indianapolis Center
Tue 11:07:23 AM 37.8764 -86.8303 201° Southwest 373 429 28,800 -1,500 Descending Indianapolis Center
Tue 11:08:23 AM 37.7811 -86.8761 200° South 373 429 27,000 -1,900 Descending Indianapolis Center
Tue 11:09:23 AM 37.6881 -86.9192 201° Southwest 373 429 25,000 -1,900 Descending Indianapolis Center
Tue 11:10:23 AM 37.5931 -86.9647 201° Southwest 368 423 23,200 -1,971 Descending Indianapolis Center
Tue 11:11:43 AM 37.4581 -87.0311 199° South 353 406 20,400 -2,087 Descending Memphis Center
Tue 11:12:41 AM 37.3675 -87.0714 199° South 362 417 18,400 -2,034 Descending Memphis Center
Tue 11:13:41 AM 37.2747 -87.1117 201° Southwest 362 417 16,400 -2,200 Descending Memphis Center
Tue 11:14:41 AM 37.1906 -87.1517 200° South 346 398 14,000 -2,300 Descending Memphis Center
Tue 11:15:41 AM 37.1164 -87.1858 201° Southwest 330 380 11,800 -2,250 Descending Memphis Center
Tue 11:16:41 AM 37.0381 -87.2228 201° Southwest 309 356 9,500 -2,273 Descending Memphis Center
Tue 11:17:53 AM 36.9536 -87.2625 200° South 253 291 6,800 -2,165 Descending Memphis Center
Tue 11:18:54 AM 36.8856 -87.2936 203° Southwest 251 289 4,700 -1,983 Descending Memphis Center
Tue 11:19:54 AM 36.8219 -87.3272 196° South 250 288 2,800 -1,234 Descending Memphis Center
Tue 11:20:41 AM 36.7806 -87.3417 220° Southwest 245 282 2,500 -224 Descending Memphis Center
Tue 11:21:41 AM 36.7378 -87.3872 209° Southwest 217 250 2,400 -400 Descending Memphis Center
Tue 11:22:41 AM 36.6989 -87.4144 194° South 185 213 1,700 -650 Descending Memphis Center
Tue 11:23:41 AM 36.6617 -87.4264 188° South 146 168 1,100 -450 Descending Memphis Center
Tue 11:24:41 AM 36.6264 -87.4328 188° South 133 153 800 -300 Descending Memphis Center

Login

Don't have an account? Register now (free) for customized features, flight alerts, and more!